Detalii statie UNIVERSITATEA AGRICOLA IASI [0000198B]

Toti senzorii

Date Temperatura solului [C]Precipitatii [mm]Voltaj baterie [mV]HC Air temperature [C]HC Relative humidity [%]Punctul de roua [C]
medieminmaxsumaultimamedieminmaxmediemediemin
2020-01-21 23:00:00 0 6942 3.72 3.12 4 100 3.7 3.1
2020-01-22 00:00:00 0 6942 4.28 3.76 4.73 58.33 0
2020-01-22 01:00:00 0 6942 3.84 3.06 4.54 83.33 3 0
2020-01-22 02:00:00 0 6942 2.63 1.89 3.38 100 2.5 1.8
2020-01-22 03:00:00 0 6932 1.89 0.55 2.79 100 1.8 0.5
2020-01-22 04:00:00 0 6914 0.68 0.11 1.58 91.69 -0.5 -1.1
2020-01-22 05:00:00 0 6922 -0.71 -1.92 0.92 95.66 -1.2 -2.1
2020-01-22 06:00:00 0 6914 -1.36 -1.92 -0.62 95.69 -1.8 -2.4
2020-01-22 07:00:00 0 6914 -1.87 -2.34 -1.48 98.95 -1.9 -2.3
2020-01-22 08:00:00 0 6914 -2.22 -3.13 -1.25 98.63 -2.3 -3.4
2020-01-22 09:00:00 0 7274 -0.65 -2.64 1.56 96 -1.1 -2.5
2020-01-22 10:00:00 0 7324 3.93 2.04 5.95 95.28 3.1 0.5
2020-01-22 11:00:00 0 7324 7.55 6.14 9.03 83.33 6 0
2020-01-22 12:00:00 0 7314 10.59 9.37 11.69 0 0 0
2020-01-22 13:00:00 0 7304 12.09 11.52 12.51 0 0 0
2020-01-22 14:00:00 0 7324 12.8 12.37 13.11 0 0 0
2020-01-22 15:00:00 0 7294 12.57 11.65 13.09 0 0 0
2020-01-22 16:00:00 0 7284 10.33 9.94 11.04 0 0 0
2020-01-22 17:00:00 0 7186 9.72 8.99 10.31 0 0 0
2020-01-22 18:00:00 0 7080 7.69 6.88 8.91 19.51 0
2020-01-22 19:00:00 0 7020 6.35 5.93 6.77 100 6.3 5.9
2020-01-22 20:00:00 0 6972 5.41 4.92 5.86 100 5.3 4.9
2020-01-22 21:00:00 0 6972 4.64 4.4 5 97.64 4.2 2.8
2020-01-22 22:00:00 0 6942 4.18 4.07 4.31 85.42 1.8 1.2
2020-01-22 23:00:00 0 6952 4.1 3.99 4.19 82.63 1.3 1.1
2020-01-23 00:00:00 0 6952 3.99 3.87 4.1 81.99 1 0.8
2020-01-23 01:00:00 0 6932 3.68 3.46 3.9 84.65 1.2 1
2020-01-23 02:00:00 0 6942 3.43 3.26 3.55 82.1 0.5 0.3
2020-01-23 03:00:00 0 6932 3.05 2.81 3.26 85.76 0.7 0.4
2020-01-23 04:00:00 0 6922 2.28 1.93 2.73 93.49 1.2 1
2020-01-23 05:00:00 0 6914 1.62 1.47 1.87 96.97 1 0.7
2020-01-23 06:00:00 0 6914 1.94 1.79 2.19 91.31 0.5 0.3
2020-01-23 07:00:00 0 6904 2.39 2.14 2.58 87.77 0.4 0.1
2020-01-23 08:00:00 0 6894 2.68 2.48 2.86 82.97 0 -0.2
2020-01-23 09:00:00 0 6914 2.97 2.83 3.1 78.46 -0.3 -0.5
2020-01-23 10:00:00 0 6982 3.23 3.09 3.43 74.68 -0.8 -1.2
2020-01-23 11:00:00 0 7098 3.51 3.39 3.67 72.92 -0.9 -1.2
2020-01-23 12:00:00 0.2 7294 4.06 3.75 4.49 70.18 -0.9 -1.1
2020-01-23 13:00:00 0.2 7332 4.49 4.09 5.05 64.58 -1.6 -2.2
2020-01-23 14:00:00 0 7332 4.79 4.29 5.54 62.7 -1.7 -2.2
2020-01-23 15:00:00 0 7332 4.89 4.34 5.44 60.29 -2.2 -2.9
2020-01-23 16:00:00 0 7324 3.89 3.4 4.31 62.8 -2.6 -3
2020-01-23 17:00:00 0 7226 3.02 2.55 3.33 64.7 -3 -3.1
2020-01-23 18:00:00 0 7166 1.91 1.58 2.32 69.37 -3.1 -3.2
2020-01-23 19:00:00 0 7128 1.18 1 1.47 71.2 -3.4 -3.7